sensor_id;sensor_type;location;lat;lon;timestamp;P1;durP1;ratioP1;P2;durP2;ratioP2
86144;SDS011;76801;42.716;23.178;2024-03-08T00:01:25;3.45;;;1.73;;
86144;SDS011;76801;42.716;23.178;2024-03-08T00:03:50;3.03;;;2.53;;
86144;SDS011;76801;42.716;23.178;2024-03-08T00:06:17;2.97;;;2.00;;
86144;SDS011;76801;42.716;23.178;2024-03-08T00:08:42;3.03;;;1.17;;
86144;SDS011;76801;42.716;23.178;2024-03-08T00:11:07;3.88;;;2.45;;
86144;SDS011;76801;42.716;23.178;2024-03-08T00:13:33;4.15;;;2.47;;
86144;SDS011;76801;42.716;23.178;2024-03-08T00:15:59;4.10;;;3.08;;
86144;SDS011;76801;42.716;23.178;2024-03-08T00:18:24;4.88;;;2.92;;
86144;SDS011;76801;42.716;23.178;2024-03-08T00:20:50;3.78;;;2.70;;
86144;SDS011;76801;42.716;23.178;2024-03-08T00:23:15;4.22;;;2.97;;
86144;SDS011;76801;42.716;23.178;2024-03-08T00:25:41;4.55;;;3.05;;
86144;SDS011;76801;42.716;23.178;2024-03-08T00:28:06;5.65;;;2.42;;
86144;SDS011;76801;42.716;23.178;2024-03-08T00:30:32;2.65;;;1.30;;
86144;SDS011;76801;42.716;23.178;2024-03-08T00:32:57;4.43;;;2.25;;
86144;SDS011;76801;42.716;23.178;2024-03-08T00:35:22;3.42;;;2.20;;
86144;SDS011;76801;42.716;23.178;2024-03-08T00:37:48;2.67;;;1.63;;
86144;SDS011;76801;42.716;23.178;2024-03-08T00:40:14;3.25;;;1.65;;
86144;SDS011;76801;42.716;23.178;2024-03-08T00:42:39;2.78;;;1.63;;
86144;SDS011;76801;42.716;23.178;2024-03-08T00:45:06;2.22;;;1.00;;
86144;SDS011;76801;42.716;23.178;2024-03-08T00:47:32;3.00;;;1.92;;
86144;SDS011;76801;42.716;23.178;2024-03-08T00:49:57;3.65;;;1.63;;
86144;SDS011;76801;42.716;23.178;2024-03-08T00:52:23;3.03;;;1.58;;
86144;SDS011;76801;42.716;23.178;2024-03-08T00:54:49;2.58;;;1.88;;
86144;SDS011;76801;42.716;23.178;2024-03-08T00:57:14;2.33;;;1.42;;
86144;SDS011;76801;42.716;23.178;2024-03-08T00:59:40;3.40;;;1.95;;
86144;SDS011;76801;42.716;23.178;2024-03-08T01:02:05;2.72;;;1.88;;
86144;SDS011;76801;42.716;23.178;2024-03-08T01:04:31;2.53;;;1.70;;
86144;SDS011;76801;42.716;23.178;2024-03-08T01:06:58;4.35;;;2.90;;
86144;SDS011;76801;42.716;23.178;2024-03-08T01:09:24;3.80;;;1.92;;
86144;SDS011;76801;42.716;23.178;2024-03-08T01:11:51;2.97;;;2.00;;
86144;SDS011;76801;42.716;23.178;2024-03-08T01:14:18;3.28;;;1.83;;
86144;SDS011;76801;42.716;23.178;2024-03-08T01:16:43;2.28;;;1.42;;
86144;SDS011;76801;42.716;23.178;2024-03-08T01:19:08;3.35;;;1.85;;
86144;SDS011;76801;42.716;23.178;2024-03-08T01:21:34;2.55;;;1.05;;
86144;SDS011;76801;42.716;23.178;2024-03-08T01:23:59;2.67;;;1.90;;
86144;SDS011;76801;42.716;23.178;2024-03-08T01:26:25;2.38;;;1.67;;
86144;SDS011;76801;42.716;23.178;2024-03-08T01:28:50;3.22;;;1.95;;
86144;SDS011;76801;42.716;23.178;2024-03-08T01:31:15;3.13;;;2.05;;
86144;SDS011;76801;42.716;23.178;2024-03-08T01:33:41;3.08;;;2.17;;
86144;SDS011;76801;42.716;23.178;2024-03-08T01:36:07;4.72;;;1.80;;
86144;SDS011;76801;42.716;23.178;2024-03-08T01:38:32;2.05;;;1.67;;
86144;SDS011;76801;42.716;23.178;2024-03-08T01:40:58;2.35;;;1.35;;
86144;SDS011;76801;42.716;23.178;2024-03-08T01:43:27;2.33;;;1.35;;
86144;SDS011;76801;42.716;23.178;2024-03-08T01:45:59;2.75;;;1.92;;
86144;SDS011;76801;42.716;23.178;2024-03-08T01:48:27;2.58;;;1.58;;
86144;SDS011;76801;42.716;23.178;2024-03-08T01:50:54;2.30;;;1.23;;
86144;SDS011;76801;42.716;23.178;2024-03-08T01:53:21;1.98;;;1.52;;
86144;SDS011;76801;42.716;23.178;2024-03-08T01:55:48;2.55;;;2.25;;
86144;SDS011;76801;42.716;23.178;2024-03-08T01:58:14;2.05;;;1.50;;
86144;SDS011;76801;42.716;23.178;2024-03-08T02:00:40;2.42;;;1.58;;
86144;SDS011;76801;42.716;23.178;2024-03-08T02:03:08;2.53;;;1.80;;
86144;SDS011;76801;42.716;23.178;2024-03-08T02:05:34;1.98;;;1.17;;
86144;SDS011;76801;42.716;23.178;2024-03-08T02:08:00;2.47;;;0.73;;
86144;SDS011;76801;42.716;23.178;2024-03-08T02:10:27;2.45;;;1.83;;
86144;SDS011;76801;42.716;23.178;2024-03-08T02:12:53;2.47;;;0.80;;
86144;SDS011;76801;42.716;23.178;2024-03-08T02:15:18;2.97;;;1.83;;
86144;SDS011;76801;42.716;23.178;2024-03-08T02:17:44;2.53;;;1.80;;
86144;SDS011;76801;42.716;23.178;2024-03-08T02:20:10;3.92;;;2.85;;
86144;SDS011;76801;42.716;23.178;2024-03-08T02:22:38;4.05;;;2.58;;
86144;SDS011;76801;42.716;23.178;2024-03-08T02:25:03;4.10;;;2.72;;
86144;SDS011;76801;42.716;23.178;2024-03-08T02:27:33;2.42;;;1.83;;
86144;SDS011;76801;42.716;23.178;2024-03-08T02:29:59;2.80;;;1.70;;
86144;SDS011;76801;42.716;23.178;2024-03-08T02:32:24;2.75;;;2.13;;
86144;SDS011;76801;42.716;23.178;2024-03-08T02:34:50;3.00;;;1.70;;
86144;SDS011;76801;42.716;23.178;2024-03-08T02:37:16;3.05;;;2.00;;
86144;SDS011;76801;42.716;23.178;2024-03-08T02:39:42;2.92;;;2.28;;
86144;SDS011;76801;42.716;23.178;2024-03-08T02:42:07;3.67;;;2.50;;
86144;SDS011;76801;42.716;23.178;2024-03-08T02:44:33;2.17;;;1.65;;
86144;SDS011;76801;42.716;23.178;2024-03-08T02:46:58;2.45;;;1.42;;
86144;SDS011;76801;42.716;23.178;2024-03-08T02:49:24;3.47;;;1.55;;
86144;SDS011;76801;42.716;23.178;2024-03-08T02:51:51;2.25;;;1.73;;
86144;SDS011;76801;42.716;23.178;2024-03-08T02:54:17;4.35;;;2.20;;
86144;SDS011;76801;42.716;23.178;2024-03-08T02:56:42;3.42;;;2.10;;
86144;SDS011;76801;42.716;23.178;2024-03-08T02:59:08;2.45;;;1.92;;
86144;SDS011;76801;42.716;23.178;2024-03-08T03:01:33;2.75;;;1.55;;
86144;SDS011;76801;42.716;23.178;2024-03-08T03:03:59;3.25;;;2.58;;
86144;SDS011;76801;42.716;23.178;2024-03-08T03:06:27;4.32;;;3.13;;
86144;SDS011;76801;42.716;23.178;2024-03-08T03:08:52;3.75;;;2.42;;
86144;SDS011;76801;42.716;23.178;2024-03-08T03:11:18;2.85;;;1.85;;
86144;SDS011;76801;42.716;23.178;2024-03-08T03:13:44;2.88;;;1.80;;
86144;SDS011;76801;42.716;23.178;2024-03-08T03:16:16;2.67;;;1.50;;
86144;SDS011;76801;42.716;23.178;2024-03-08T03:18:43;2.15;;;1.20;;
86144;SDS011;76801;42.716;23.178;2024-03-08T03:21:09;2.20;;;0.75;;
86144;SDS011;76801;42.716;23.178;2024-03-08T03:23:34;2.97;;;2.22;;
86144;SDS011;76801;42.716;23.178;2024-03-08T03:26:00;2.20;;;1.92;;
86144;SDS011;76801;42.716;23.178;2024-03-08T03:28:27;3.58;;;1.88;;
86144;SDS011;76801;42.716;23.178;2024-03-08T03:30:53;3.05;;;2.28;;
86144;SDS011;76801;42.716;23.178;2024-03-08T03:33:18;3.13;;;2.60;;
86144;SDS011;76801;42.716;23.178;2024-03-08T03:35:44;3.88;;;2.50;;
86144;SDS011;76801;42.716;23.178;2024-03-08T03:38:10;2.92;;;2.25;;
86144;SDS011;76801;42.716;23.178;2024-03-08T03:40:35;2.90;;;2.13;;
86144;SDS011;76801;42.716;23.178;2024-03-08T03:43:01;3.58;;;2.50;;
86144;SDS011;76801;42.716;23.178;2024-03-08T03:45:28;3.88;;;3.42;;
86144;SDS011;76801;42.716;23.178;2024-03-08T03:47:53;6.05;;;3.42;;
86144;SDS011;76801;42.716;23.178;2024-03-08T03:50:19;3.92;;;2.80;;
86144;SDS011;76801;42.716;23.178;2024-03-08T03:52:45;3.75;;;3.20;;
86144;SDS011;76801;42.716;23.178;2024-03-08T03:55:11;4.10;;;3.05;;
86144;SDS011;76801;42.716;23.178;2024-03-08T03:57:38;5.85;;;2.20;;
86144;SDS011;76801;42.716;23.178;2024-03-08T04:00:04;5.53;;;2.70;;
86144;SDS011;76801;42.716;23.178;2024-03-08T04:02:31;4.25;;;1.70;;
86144;SDS011;76801;42.716;23.178;2024-03-08T04:04:56;4.68;;;2.20;;
86144;SDS011;76801;42.716;23.178;2024-03-08T04:07:22;2.83;;;2.42;;
86144;SDS011;76801;42.716;23.178;2024-03-08T04:09:47;3.00;;;2.25;;
86144;SDS011;76801;42.716;23.178;2024-03-08T04:12:12;3.80;;;2.17;;
86144;SDS011;76801;42.716;23.178;2024-03-08T04:14:41;3.67;;;2.55;;
86144;SDS011;76801;42.716;23.178;2024-03-08T04:17:07;2.40;;;1.80;;
86144;SDS011;76801;42.716;23.178;2024-03-08T04:19:34;3.15;;;1.85;;
86144;SDS011;76801;42.716;23.178;2024-03-08T04:21:59;2.90;;;2.28;;
86144;SDS011;76801;42.716;23.178;2024-03-08T04:24:26;4.38;;;1.92;;
86144;SDS011;76801;42.716;23.178;2024-03-08T04:26:51;3.15;;;2.05;;
86144;SDS011;76801;42.716;23.178;2024-03-08T04:29:19;2.22;;;1.80;;
86144;SDS011;76801;42.716;23.178;2024-03-08T04:31:44;3.03;;;1.95;;
86144;SDS011;76801;42.716;23.178;2024-03-08T04:34:10;2.25;;;1.35;;
86144;SDS011;76801;42.716;23.178;2024-03-08T04:36:35;3.55;;;1.38;;
86144;SDS011;76801;42.716;23.178;2024-03-08T04:39:01;2.03;;;1.70;;
86144;SDS011;76801;42.716;23.178;2024-03-08T04:41:27;3.42;;;1.65;;
86144;SDS011;76801;42.716;23.178;2024-03-08T04:43:55;3.45;;;1.80;;
86144;SDS011;76801;42.716;23.178;2024-03-08T04:46:22;2.78;;;1.70;;
86144;SDS011;76801;42.716;23.178;2024-03-08T04:48:48;3.05;;;2.75;;
86144;SDS011;76801;42.716;23.178;2024-03-08T04:51:13;2.35;;;1.80;;
86144;SDS011;76801;42.716;23.178;2024-03-08T04:53:40;2.25;;;1.55;;
86144;SDS011;76801;42.716;23.178;2024-03-08T04:56:06;1.95;;;1.45;;
86144;SDS011;76801;42.716;23.178;2024-03-08T04:58:33;2.80;;;1.38;;
86144;SDS011;76801;42.716;23.178;2024-03-08T05:01:01;1.77;;;1.35;;
86144;SDS011;76801;42.716;23.178;2024-03-08T05:03:26;2.35;;;1.33;;
86144;SDS011;76801;42.716;23.178;2024-03-08T05:05:52;2.83;;;1.90;;
86144;SDS011;76801;42.716;23.178;2024-03-08T05:08:18;2.70;;;2.03;;
86144;SDS011;76801;42.716;23.178;2024-03-08T05:10:43;3.83;;;1.30;;
86144;SDS011;76801;42.716;23.178;2024-03-08T05:13:09;3.40;;;2.28;;
86144;SDS011;76801;42.716;23.178;2024-03-08T05:15:34;3.47;;;2.53;;
86144;SDS011;76801;42.716;23.178;2024-03-08T05:18:00;5.78;;;3.00;;
86144;SDS011;76801;42.716;23.178;2024-03-08T05:20:25;3.92;;;2.63;;
86144;SDS011;76801;42.716;23.178;2024-03-08T05:22:51;3.20;;;1.40;;
86144;SDS011;76801;42.716;23.178;2024-03-08T05:25:19;3.35;;;2.03;;
86144;SDS011;76801;42.716;23.178;2024-03-08T05:27:44;3.33;;;2.08;;
86144;SDS011;76801;42.716;23.178;2024-03-08T05:30:12;2.75;;;1.48;;
86144;SDS011;76801;42.716;23.178;2024-03-08T05:32:40;2.97;;;2.25;;
86144;SDS011;76801;42.716;23.178;2024-03-08T05:35:09;5.07;;;2.63;;
86144;SDS011;76801;42.716;23.178;2024-03-08T05:37:35;4.95;;;3.55;;
86144;SDS011;76801;42.716;23.178;2024-03-08T05:40:01;4.30;;;2.67;;
86144;SDS011;76801;42.716;23.178;2024-03-08T05:42:28;4.53;;;2.33;;
86144;SDS011;76801;42.716;23.178;2024-03-08T05:44:53;3.75;;;2.42;;
86144;SDS011;76801;42.716;23.178;2024-03-08T05:47:20;3.78;;;2.15;;
86144;SDS011;76801;42.716;23.178;2024-03-08T05:49:45;3.08;;;2.00;;
86144;SDS011;76801;42.716;23.178;2024-03-08T05:52:11;5.68;;;2.97;;
86144;SDS011;76801;42.716;23.178;2024-03-08T05:54:36;4.95;;;1.95;;
86144;SDS011;76801;42.716;23.178;2024-03-08T05:57:02;3.42;;;2.33;;
86144;SDS011;76801;42.716;23.178;2024-03-08T05:59:27;3.50;;;2.50;;
86144;SDS011;76801;42.716;23.178;2024-03-08T06:01:53;4.80;;;2.47;;
86144;SDS011;76801;42.716;23.178;2024-03-08T06:04:18;4.03;;;2.65;;
86144;SDS011;76801;42.716;23.178;2024-03-08T06:06:44;4.97;;;2.90;;
86144;SDS011;76801;42.716;23.178;2024-03-08T06:09:09;3.83;;;2.60;;
86144;SDS011;76801;42.716;23.178;2024-03-08T06:11:39;3.42;;;2.33;;
86144;SDS011;76801;42.716;23.178;2024-03-08T06:14:04;3.40;;;2.75;;
86144;SDS011;76801;42.716;23.178;2024-03-08T06:16:31;4.47;;;2.30;;
86144;SDS011;76801;42.716;23.178;2024-03-08T06:18:56;3.70;;;2.42;;
86144;SDS011;76801;42.716;23.178;2024-03-08T06:21:22;4.70;;;3.63;;
86144;SDS011;76801;42.716;23.178;2024-03-08T06:23:48;6.60;;;2.70;;
86144;SDS011;76801;42.716;23.178;2024-03-08T06:26:13;4.47;;;3.13;;
86144;SDS011;76801;42.716;23.178;2024-03-08T06:28:38;4.80;;;2.50;;
86144;SDS011;76801;42.716;23.178;2024-03-08T06:31:04;4.07;;;2.75;;
86144;SDS011;76801;42.716;23.178;2024-03-08T06:33:29;3.80;;;3.20;;
86144;SDS011;76801;42.716;23.178;2024-03-08T06:35:57;4.53;;;3.22;;
86144;SDS011;76801;42.716;23.178;2024-03-08T06:38:23;5.65;;;3.15;;
86144;SDS011;76801;42.716;23.178;2024-03-08T06:40:49;7.82;;;4.22;;
86144;SDS011;76801;42.716;23.178;2024-03-08T06:43:16;8.35;;;2.95;;
86144;SDS011;76801;42.716;23.178;2024-03-08T06:45:42;4.55;;;3.53;;
86144;SDS011;76801;42.716;23.178;2024-03-08T06:48:13;4.32;;;3.05;;
86144;SDS011;76801;42.716;23.178;2024-03-08T06:50:42;5.53;;;3.67;;
86144;SDS011;76801;42.716;23.178;2024-03-08T06:53:13;6.30;;;3.50;;
86144;SDS011;76801;42.716;23.178;2024-03-08T06:55:39;5.47;;;2.90;;
86144;SDS011;76801;42.716;23.178;2024-03-08T06:58:05;4.93;;;3.50;;
86144;SDS011;76801;42.716;23.178;2024-03-08T07:00:31;4.95;;;3.63;;
86144;SDS011;76801;42.716;23.178;2024-03-08T07:02:57;4.30;;;3.15;;
86144;SDS011;76801;42.716;23.178;2024-03-08T07:05:26;4.35;;;3.10;;
86144;SDS011;76801;42.716;23.178;2024-03-08T07:07:52;5.72;;;3.55;;
86144;SDS011;76801;42.716;23.178;2024-03-08T07:10:17;6.53;;;4.05;;
86144;SDS011;76801;42.716;23.178;2024-03-08T07:12:44;6.50;;;3.55;;
86144;SDS011;76801;42.716;23.178;2024-03-08T07:15:09;8.00;;;4.43;;
86144;SDS011;76801;42.716;23.178;2024-03-08T07:17:39;7.38;;;3.65;;
86144;SDS011;76801;42.716;23.178;2024-03-08T07:20:05;7.00;;;3.78;;
86144;SDS011;76801;42.716;23.178;2024-03-08T07:22:36;7.68;;;4.38;;
86144;SDS011;76801;42.716;23.178;2024-03-08T07:25:03;6.72;;;4.03;;
86144;SDS011;76801;42.716;23.178;2024-03-08T07:27:33;7.00;;;3.13;;
86144;SDS011;76801;42.716;23.178;2024-03-08T07:30:04;7.10;;;3.47;;
86144;SDS011;76801;42.716;23.178;2024-03-08T07:32:30;6.10;;;3.67;;
86144;SDS011;76801;42.716;23.178;2024-03-08T07:34:56;6.70;;;3.60;;
86144;SDS011;76801;42.716;23.178;2024-03-08T07:37:22;7.75;;;4.25;;
86144;SDS011;76801;42.716;23.178;2024-03-08T07:39:48;7.10;;;4.88;;
86144;SDS011;76801;42.716;23.178;2024-03-08T07:42:14;4.85;;;3.25;;
86144;SDS011;76801;42.716;23.178;2024-03-08T07:44:39;4.38;;;2.97;;
86144;SDS011;76801;42.716;23.178;2024-03-08T07:47:05;5.13;;;3.72;;
86144;SDS011;76801;42.716;23.178;2024-03-08T07:49:34;4.97;;;3.05;;
86144;SDS011;76801;42.716;23.178;2024-03-08T07:51:59;7.65;;;3.95;;
86144;SDS011;76801;42.716;23.178;2024-03-08T07:54:25;8.00;;;3.63;;
86144;SDS011;76801;42.716;23.178;2024-03-08T07:56:51;5.30;;;3.22;;
86144;SDS011;76801;42.716;23.178;2024-03-08T07:59:17;4.45;;;2.55;;
86144;SDS011;76801;42.716;23.178;2024-03-08T08:01:43;5.85;;;3.03;;
86144;SDS011;76801;42.716;23.178;2024-03-08T08:04:09;5.53;;;4.00;;
86144;SDS011;76801;42.716;23.178;2024-03-08T08:06:37;5.13;;;3.60;;
86144;SDS011;76801;42.716;23.178;2024-03-08T08:09:06;6.50;;;2.75;;
86144;SDS011;76801;42.716;23.178;2024-03-08T08:11:35;4.93;;;2.88;;
86144;SDS011;76801;42.716;23.178;2024-03-08T08:14:00;3.92;;;2.33;;
86144;SDS011;76801;42.716;23.178;2024-03-08T08:16:25;5.00;;;2.50;;
86144;SDS011;76801;42.716;23.178;2024-03-08T08:18:51;4.07;;;2.15;;
86144;SDS011;76801;42.716;23.178;2024-03-08T08:21:17;3.85;;;2.50;;
86144;SDS011;76801;42.716;23.178;2024-03-08T08:23:43;3.08;;;2.13;;
86144;SDS011;76801;42.716;23.178;2024-03-08T08:26:09;3.88;;;2.25;;
86144;SDS011;76801;42.716;23.178;2024-03-08T08:28:36;3.42;;;1.40;;
86144;SDS011;76801;42.716;23.178;2024-03-08T08:31:01;5.80;;;2.95;;
86144;SDS011;76801;42.716;23.178;2024-03-08T08:33:29;3.75;;;2.85;;
86144;SDS011;76801;42.716;23.178;2024-03-08T08:35:54;3.58;;;2.35;;
86144;SDS011;76801;42.716;23.178;2024-03-08T08:38:20;3.33;;;2.58;;
86144;SDS011;76801;42.716;23.178;2024-03-08T08:40:45;4.80;;;2.78;;
86144;SDS011;76801;42.716;23.178;2024-03-08T08:43:12;5.13;;;2.28;;
86144;SDS011;76801;42.716;23.178;2024-03-08T08:45:38;3.70;;;2.38;;
86144;SDS011;76801;42.716;23.178;2024-03-08T08:48:03;4.18;;;2.38;;
86144;SDS011;76801;42.716;23.178;2024-03-08T08:50:30;3.25;;;2.25;;
86144;SDS011;76801;42.716;23.178;2024-03-08T08:52:56;4.15;;;2.40;;
86144;SDS011;76801;42.716;23.178;2024-03-08T08:55:21;4.50;;;2.60;;
86144;SDS011;76801;42.716;23.178;2024-03-08T08:57:50;5.25;;;2.80;;
86144;SDS011;76801;42.716;23.178;2024-03-08T09:00:17;4.18;;;2.60;;
86144;SDS011;76801;42.716;23.178;2024-03-08T09:02:44;3.72;;;2.25;;
86144;SDS011;76801;42.716;23.178;2024-03-08T09:05:10;4.50;;;2.78;;
86144;SDS011;76801;42.716;23.178;2024-03-08T09:07:41;3.58;;;2.10;;
86144;SDS011;76801;42.716;23.178;2024-03-08T09:10:09;4.95;;;3.05;;
86144;SDS011;76801;42.716;23.178;2024-03-08T09:12:34;4.70;;;2.67;;
86144;SDS011;76801;42.716;23.178;2024-03-08T09:15:00;3.15;;;2.17;;
86144;SDS011;76801;42.716;23.178;2024-03-08T09:17:25;4.15;;;2.03;;
86144;SDS011;76801;42.716;23.178;2024-03-08T09:19:51;4.57;;;2.20;;
86144;SDS011;76801;42.716;23.178;2024-03-08T09:22:16;3.58;;;1.63;;
86144;SDS011;76801;42.716;23.178;2024-03-08T09:24:43;2.95;;;1.17;;
86144;SDS011;76801;42.716;23.178;2024-03-08T09:27:08;3.55;;;2.00;;
86144;SDS011;76801;42.716;23.178;2024-03-08T09:29:35;3.35;;;2.00;;
86144;SDS011;76801;42.716;23.178;2024-03-08T09:32:00;2.47;;;1.48;;
86144;SDS011;76801;42.716;23.178;2024-03-08T09:34:26;3.03;;;1.40;;
86144;SDS011;76801;42.716;23.178;2024-03-08T09:36:51;5.10;;;2.63;;
86144;SDS011;76801;42.716;23.178;2024-03-08T09:39:17;4.90;;;2.75;;
86144;SDS011;76801;42.716;23.178;2024-03-08T09:41:45;6.78;;;2.90;;
86144;SDS011;76801;42.716;23.178;2024-03-08T09:44:14;2.67;;;1.83;;
86144;SDS011;76801;42.716;23.178;2024-03-08T09:46:40;5.10;;;1.92;;
86144;SDS011;76801;42.716;23.178;2024-03-08T09:49:06;3.45;;;2.20;;
86144;SDS011;76801;42.716;23.178;2024-03-08T09:51:33;3.53;;;1.75;;
86144;SDS011;76801;42.716;23.178;2024-03-08T09:54:03;2.60;;;1.70;;
86144;SDS011;76801;42.716;23.178;2024-03-08T09:56:30;2.88;;;1.98;;
86144;SDS011;76801;42.716;23.178;2024-03-08T09:58:58;1.90;;;1.20;;
86144;SDS011;76801;42.716;23.178;2024-03-08T10:01:42;3.33;;;2.08;;
86144;SDS011;76801;42.716;23.178;2024-03-08T10:04:07;3.95;;;2.50;;
86144;SDS011;76801;42.716;23.178;2024-03-08T10:06:35;3.10;;;1.50;;
86144;SDS011;76801;42.716;23.178;2024-03-08T10:09:01;2.95;;;2.00;;
86144;SDS011;76801;42.716;23.178;2024-03-08T10:11:26;2.97;;;1.70;;
86144;SDS011;76801;42.716;23.178;2024-03-08T10:13:52;3.00;;;1.77;;
86144;SDS011;76801;42.716;23.178;2024-03-08T10:16:17;3.80;;;1.98;;
86144;SDS011;76801;42.716;23.178;2024-03-08T10:18:44;3.28;;;2.15;;
86144;SDS011;76801;42.716;23.178;2024-03-08T10:21:10;2.67;;;1.30;;
86144;SDS011;76801;42.716;23.178;2024-03-08T10:23:36;3.65;;;2.35;;
86144;SDS011;76801;42.716;23.178;2024-03-08T10:26:11;4.05;;;3.25;;
86144;SDS011;76801;42.716;23.178;2024-03-08T10:28:44;3.83;;;2.72;;
86144;SDS011;76801;42.716;23.178;2024-03-08T10:31:10;3.80;;;2.83;;
86144;SDS011;76801;42.716;23.178;2024-03-08T10:33:36;3.35;;;1.60;;
86144;SDS011;76801;42.716;23.178;2024-03-08T10:36:03;3.05;;;1.48;;
86144;SDS011;76801;42.716;23.178;2024-03-08T10:38:30;4.00;;;2.10;;
86144;SDS011;76801;42.716;23.178;2024-03-08T10:41:00;5.85;;;2.22;;
86144;SDS011;76801;42.716;23.178;2024-03-08T10:43:26;3.67;;;2.70;;
86144;SDS011;76801;42.716;23.178;2024-03-08T10:46:07;4.53;;;2.50;;
86144;SDS011;76801;42.716;23.178;2024-03-08T10:48:41;2.83;;;1.90;;
86144;SDS011;76801;42.716;23.178;2024-03-08T10:51:09;5.20;;;2.08;;
86144;SDS011;76801;42.716;23.178;2024-03-08T10:53:36;2.92;;;1.70;;
86144;SDS011;76801;42.716;23.178;2024-03-08T10:56:06;2.70;;;1.73;;
86144;SDS011;76801;42.716;23.178;2024-03-08T10:58:32;2.10;;;1.73;;
86144;SDS011;76801;42.716;23.178;2024-03-08T11:01:00;2.28;;;1.55;;
86144;SDS011;76801;42.716;23.178;2024-03-08T11:08:55;3.45;;;1.42;;
86144;SDS011;76801;42.716;23.178;2024-03-08T11:11:29;2.60;;;1.98;;
86144;SDS011;76801;42.716;23.178;2024-03-08T11:13:57;3.33;;;2.33;;
86144;SDS011;76801;42.716;23.178;2024-03-08T11:18:54;4.15;;;1.88;;
86144;SDS011;76801;42.716;23.178;2024-03-08T11:21:25;2.85;;;1.67;;
86144;SDS011;76801;42.716;23.178;2024-03-08T11:24:01;3.15;;;1.30;;
86144;SDS011;76801;42.716;23.178;2024-03-08T11:34:43;2.75;;;1.60;;
86144;SDS011;76801;42.716;23.178;2024-03-08T11:37:12;3.72;;;2.15;;
86144;SDS011;76801;42.716;23.178;2024-03-08T11:39:39;2.50;;;1.15;;
86144;SDS011;76801;42.716;23.178;2024-03-08T11:42:05;2.40;;;2.05;;
86144;SDS011;76801;42.716;23.178;2024-03-08T11:44:33;2.33;;;1.95;;
86144;SDS011;76801;42.716;23.178;2024-03-08T11:46:58;2.40;;;1.33;;
86144;SDS011;76801;42.716;23.178;2024-03-08T11:49:23;2.47;;;1.50;;
86144;SDS011;76801;42.716;23.178;2024-03-08T11:51:51;3.17;;;1.70;;
86144;SDS011;76801;42.716;23.178;2024-03-08T11:54:18;4.95;;;1.52;;
86144;SDS011;76801;42.716;23.178;2024-03-08T11:56:44;2.33;;;1.92;;
86144;SDS011;76801;42.716;23.178;2024-03-08T11:59:12;2.22;;;1.73;;
86144;SDS011;76801;42.716;23.178;2024-03-08T12:01:38;3.38;;;1.70;;
86144;SDS011;76801;42.716;23.178;2024-03-08T12:04:04;1.80;;;1.52;;
86144;SDS011;76801;42.716;23.178;2024-03-08T12:06:38;4.57;;;1.40;;
86144;SDS011;76801;42.716;23.178;2024-03-08T12:09:08;2.03;;;1.65;;
86144;SDS011;76801;42.716;23.178;2024-03-08T12:11:35;2.38;;;1.30;;
86144;SDS011;76801;42.716;23.178;2024-03-08T12:14:01;1.92;;;1.30;;
86144;SDS011;76801;42.716;23.178;2024-03-08T12:16:27;2.83;;;1.50;;
86144;SDS011;76801;42.716;23.178;2024-03-08T12:18:53;1.92;;;1.30;;
86144;SDS011;76801;42.716;23.178;2024-03-08T12:21:19;3.22;;;1.58;;
86144;SDS011;76801;42.716;23.178;2024-03-08T12:24:01;1.70;;;0.52;;
86144;SDS011;76801;42.716;23.178;2024-03-08T12:26:35;1.80;;;1.13;;
86144;SDS011;76801;42.716;23.178;2024-03-08T12:31:58;2.92;;;2.03;;
86144;SDS011;76801;42.716;23.178;2024-03-08T12:34:27;2.08;;;1.58;;
86144;SDS011;76801;42.716;23.178;2024-03-08T12:36:53;2.38;;;1.23;;
86144;SDS011;76801;42.716;23.178;2024-03-08T12:39:19;2.95;;;1.42;;
86144;SDS011;76801;42.716;23.178;2024-03-08T12:41:51;3.58;;;2.00;;
86144;SDS011;76801;42.716;23.178;2024-03-08T12:44:17;4.47;;;1.70;;
86144;SDS011;76801;42.716;23.178;2024-03-08T12:46:46;2.15;;;1.30;;
86144;SDS011;76801;42.716;23.178;2024-03-08T12:49:13;2.17;;;1.65;;
86144;SDS011;76801;42.716;23.178;2024-03-08T12:51:42;3.88;;;2.10;;
86144;SDS011;76801;42.716;23.178;2024-03-08T12:54:10;2.50;;;1.45;;
86144;SDS011;76801;42.716;23.178;2024-03-08T12:56:36;3.90;;;1.45;;
86144;SDS011;76801;42.716;23.178;2024-03-08T12:59:02;4.28;;;1.75;;
86144;SDS011;76801;42.716;23.178;2024-03-08T13:01:29;1.80;;;1.00;;
86144;SDS011;76801;42.716;23.178;2024-03-08T13:03:57;2.33;;;1.23;;
86144;SDS011;76801;42.716;23.178;2024-03-08T13:06:27;2.88;;;1.52;;
86144;SDS011;76801;42.716;23.178;2024-03-08T13:08:54;2.65;;;1.80;;
86144;SDS011;76801;42.716;23.178;2024-03-08T13:11:20;3.42;;;1.25;;
86144;SDS011;76801;42.716;23.178;2024-03-08T13:13:46;3.55;;;3.28;;
86144;SDS011;76801;42.716;23.178;2024-03-08T13:16:12;13.23;;;7.40;;
86144;SDS011;76801;42.716;23.178;2024-03-08T13:18:40;9.90;;;6.25;;
86144;SDS011;76801;42.716;23.178;2024-03-08T13:21:09;3.95;;;2.35;;
86144;SDS011;76801;42.716;23.178;2024-03-08T13:23:36;5.57;;;4.63;;
86144;SDS011;76801;42.716;23.178;2024-03-08T13:28:33;2.83;;;2.30;;
86144;SDS011;76801;42.716;23.178;2024-03-08T13:31:04;3.42;;;2.80;;
86144;SDS011;76801;42.716;23.178;2024-03-08T13:33:35;2.75;;;1.52;;
86144;SDS011;76801;42.716;23.178;2024-03-08T13:36:04;2.97;;;2.13;;
86144;SDS011;76801;42.716;23.178;2024-03-08T13:38:31;3.33;;;1.80;;
86144;SDS011;76801;42.716;23.178;2024-03-08T13:40:58;2.42;;;1.50;;
86144;SDS011;76801;42.716;23.178;2024-03-08T13:43:24;2.35;;;1.38;;
86144;SDS011;76801;42.716;23.178;2024-03-08T13:45:49;3.38;;;1.77;;
86144;SDS011;76801;42.716;23.178;2024-03-08T13:48:15;2.53;;;1.42;;
86144;SDS011;76801;42.716;23.178;2024-03-08T13:50:41;3.42;;;1.90;;
86144;SDS011;76801;42.716;23.178;2024-03-08T13:53:07;1.58;;;0.95;;
86144;SDS011;76801;42.716;23.178;2024-03-08T13:55:32;4.20;;;2.30;;
86144;SDS011;76801;42.716;23.178;2024-03-08T13:57:58;8.15;;;4.78;;
86144;SDS011;76801;42.716;23.178;2024-03-08T14:00:24;5.63;;;3.83;;
86144;SDS011;76801;42.716;23.178;2024-03-08T14:02:52;8.52;;;4.72;;
86144;SDS011;76801;42.716;23.178;2024-03-08T14:05:19;7.47;;;5.20;;
86144;SDS011;76801;42.716;23.178;2024-03-08T14:07:44;6.40;;;5.07;;
86144;SDS011;76801;42.716;23.178;2024-03-08T14:10:13;5.57;;;3.42;;
86144;SDS011;76801;42.716;23.178;2024-03-08T14:12:39;4.72;;;2.22;;
86144;SDS011;76801;42.716;23.178;2024-03-08T14:15:04;4.75;;;1.90;;
86144;SDS011;76801;42.716;23.178;2024-03-08T14:17:31;4.07;;;3.20;;
86144;SDS011;76801;42.716;23.178;2024-03-08T14:19:57;4.40;;;1.75;;
86144;SDS011;76801;42.716;23.178;2024-03-08T14:22:24;6.28;;;3.17;;
86144;SDS011;76801;42.716;23.178;2024-03-08T14:24:49;4.40;;;2.92;;
86144;SDS011;76801;42.716;23.178;2024-03-08T14:27:16;2.88;;;1.50;;
86144;SDS011;76801;42.716;23.178;2024-03-08T14:29:43;4.10;;;2.38;;
86144;SDS011;76801;42.716;23.178;2024-03-08T14:32:09;3.38;;;2.67;;
86144;SDS011;76801;42.716;23.178;2024-03-08T14:34:35;6.45;;;2.67;;
86144;SDS011;76801;42.716;23.178;2024-03-08T14:37:00;5.35;;;3.00;;
86144;SDS011;76801;42.716;23.178;2024-03-08T14:39:30;3.00;;;1.52;;
86144;SDS011;76801;42.716;23.178;2024-03-08T14:41:55;2.40;;;1.60;;
86144;SDS011;76801;42.716;23.178;2024-03-08T14:44:23;3.38;;;3.03;;
86144;SDS011;76801;42.716;23.178;2024-03-08T14:46:51;3.28;;;1.55;;
86144;SDS011;76801;42.716;23.178;2024-03-08T14:49:17;2.60;;;1.75;;
86144;SDS011;76801;42.716;23.178;2024-03-08T14:51:43;3.42;;;1.95;;